Latest Weather Observations for Coonabarabran Airport

IDN60801

Issued at 8:03 am EST Saturday 2 July 2016 (issued every 30 minutes, with the page automatically refreshed every 10 minutes)

About weather observations | Map of weather stations | Latest weather observations for NSW | Other Formats
Station Details ID: 064017 Name: COONABARABRAN AIRPORT AWS Lat: -31.33 Lon: 149.27 Height: 645.0 m
Data from the previous 72 hours. | See also: Recent months at Coonabarabran Airport
Date/Time
EST
Temp
°C
App
Temp
°C
Dew
Point
°C
Rel
Hum
%
Delta-T
°C
Wind Press
QNH
hPa
Press
MSL
hPa
Rain since
9am
mm
Dir  Spd
km/h
Gust
km/h
Spd
kts
Gust
kts
02/08:00am 6.2 0.2 3.5 83 1.2 SSW 24 32 13 17 1026.2 1026.4 0.0
02/07:30am 6.1 0.5 3.6 84 1.1 SSW 22 32 12 17 1026.1 1026.3 0.0
02/07:00am 5.9 0.0 3.7 86 1.0 SSW 24 33 13 18 1025.8 1026.0 0.0
02/06:30am 5.8 0.8 4.4 91 0.6 SSW 20 28 11 15 1025.5 1025.7 0.0
02/06:00am 5.9 1.0 4.1 88 0.8 SSW 19 26 10 14 1025.4 1025.6 0.0
02/05:30am 5.6 1.5 4.6 93 0.4 SSW 15 20 8 11 1025.2 1025.4 0.0
02/05:00am 5.0 0.9 4.3 95 0.3 SSW 15 17 8 9 1025.1 1025.3 0.0
02/04:30am 4.7 0.9 3.8 94 0.4 S 13 17 7 9 1024.9 1025.1 0.0
02/04:00am 5.2 0.1 3.9 91 0.6 SSW 20 30 11 16 1024.7 1024.9 0.0
02/03:30am 4.8 -0.4 3.8 93 0.4 SW 20 28 11 15 1024.7 1024.9 0.0
02/03:00am 4.6 -0.3 3.9 95 0.3 SW 19 26 10 14 1024.7 1024.9 0.0
02/02:30am 4.8 -0.3 4.1 95 0.3 SSW 20 28 11 15 1024.9 1025.1 0.0
02/02:00am 4.9 -0.5 4.3 96 0.3 SSW 22 30 12 16 1024.8 1025.0 0.0
02/01:30am 4.6 -1.3 4.0 96 0.3 SSW 24 32 13 17 1024.9 1025.1 0.0
02/01:00am 4.6 -1.0 3.4 92 0.5 SW 22 30 12 16 1024.6 1024.8 0.0
02/12:30am 4.7 -0.3 3.4 91 0.6 SSW 19 24 10 13 1024.6 1024.8 0.0
02/12:00am 5.0 -0.2 3.3 89 0.7 SSW 20 28 11 15 1024.5 1024.7 0.0
 
Date/Time
EST
Temp
°C
App
Temp
°C
Dew
Point
°C
Rel
Hum
%
Delta-T
°C
Wind Press
QNH
hPa
Press
MSL
hPa
Rain since
9am
mm
Dir  Spd
km/h
Gust
km/h
Spd
kts
Gust
kts
01/11:30pm 5.1 -0.1 3.6 90 0.7 SW 20 26 11 14 1024.5 1024.7 0.0
01/11:00pm 5.5 0.4 4.0 90 0.7 SSW 20 30 11 16 1024.5 1024.7 0.0
01/10:30pm 5.6 -0.6 4.1 90 0.7 S 26 37 14 20 1024.4 1024.6 0.0
01/10:00pm 5.5 0.0 4.0 90 0.7 SSW 22 30 12 16 1024.6 1024.8 0.0
01/09:30pm 6.0 -0.3 3.5 84 1.1 SSW 26 39 14 21 1024.6 1024.8 0.0
01/09:00pm 5.8 0.1 3.1 83 1.2 SSW 22 32 12 17 1024.7 1024.9 0.0
01/08:30pm 5.8 0.8 3.5 85 1.0 SW 19 32 10 17 1024.6 1024.8 0.0
01/08:00pm 5.8 0.6 3.3 84 1.1 SW 20 32 11 17 1024.3 1024.4 0.0
01/07:30pm 5.9 0.6 3.1 82 1.2 SW 20 30 11 16 1024.2 1024.3 0.0
01/07:00pm 5.9 -0.2 2.9 81 1.3 SSW 24 37 13 20 1023.7 1023.9 0.0
01/06:30pm 5.9 0.6 2.9 81 1.3 SSW 20 30 11 16 1023.5 1023.7 0.0
01/06:00pm 5.8 0.6 3.6 86 1.0 SW 20 32 11 17 1023.0 1023.2 0.0
01/05:30pm 6.0 0.4 3.2 82 1.2 SSW 22 32 12 17 1022.3 1022.5 0.0
01/05:00pm 6.1 -0.4 2.7 79 1.5 SSW 26 35 14 19 1022.0 1022.2 0.0
01/04:30pm 6.6 0.5 2.7 76 1.7 SSW 24 33 13 18 1021.8 1022.0 0.0
01/04:00pm 7.5 1.9 3.4 75 1.8 SSW 22 28 12 15 1021.5 1021.6 0.0
01/03:30pm 8.3 2.7 3.4 71 2.2 WSW 22 30 12 16 1021.0 1021.1 0.0
01/03:00pm 8.6 2.6 3.4 70 2.3 SW 24 37 13 20 1020.9 1021.0 0.0
01/02:30pm 8.7 3.1 3.5 70 2.3 SW 22 37 12 20 1020.8 1020.9 0.0
01/02:00pm 9.1 2.3 3.1 66 2.7 SW 28 43 15 23 1020.4 1020.6 0.0
01/01:30pm 9.3 3.2 2.9 64 2.8 SW 24 35 13 19 1020.4 1020.6 0.0
01/01:00pm 10.0 3.1 2.6 60 3.3 SW 28 41 15 22 1020.0 1020.1 0.0
01/12:30pm 9.9 4.5 2.5 60 3.3 SW 20 30 11 16 1020.3 1020.4 0.0
01/12:00pm 9.3 3.4 1.9 60 3.2 WSW 22 35 12 19 1020.5 1020.7 0.0
01/11:30am 9.6 4.7 2.2 60 3.2 WSW 17 26 9 14 1021.0 1021.1 0.0
01/11:00am 8.9 3.4 1.6 60 3.1 SW 20 28 11 15 1021.4 1021.5 0.0
01/10:30am 8.3 3.8 2.3 66 2.6 SW 15 20 8 11 1021.3 1021.4 0.0
01/10:00am 7.6 2.1 2.1 68 2.4 SW 20 28 11 15 1021.4 1021.5 0.0
01/09:30am 6.7 1.5 2.2 73 1.9 WSW 19 24 10 13 1021.2 1021.0 0.0
01/09:00am 6.7 1.6 3.1 78 1.6 SW 19 30 10 16 1021.0 1020.8 0.0
01/08:30am 5.9 2.0 3.6 85 1.0 SSW 13 22 7 12 1020.8 1020.6 0.0
01/08:00am 6.0 3.4 3.3 83 1.2 W 6 13 3 7 1020.3 1020.1 0.0
01/07:30am 5.8 2.3 3.3 84 1.1 SSW 11 19 6 10 1020.0 1019.8 0.0
01/07:00am 6.0 2.5 3.3 83 1.2 WSW 11 17 6 9 1019.6 1019.4 0.0
01/06:30am 6.4 3.4 3.9 84 1.1 W 9 17 5 9 1019.3 1019.1 0.0
01/06:00am 6.5 2.4 4.2 85 1.0 W 15 20 8 11 1019.0 1018.8 0.0
01/05:30am 7.1 2.0 4.1 81 1.3 WSW 20 32 11 17 1018.6 1018.4 0.0
01/05:00am 7.9 3.0 4.3 78 1.6 WSW 19 30 10 16 1018.2 1018.0 0.0
01/04:30am 8.5 3.3 3.8 72 2.1 W 20 32 11 17 1018.0 1017.8 0.0
01/04:00am 8.1 2.1 3.4 72 2.1 WNW 24 30 13 16 1017.6 1017.3 0.0
01/03:30am 8.1 1.6 2.8 69 2.3 WNW 26 37 14 20 1017.8 1017.6 0.0
01/03:00am 7.9 2.6 2.8 70 2.2 WNW 20 32 11 17 1018.0 1017.8 0.0
01/02:30am 7.2 3.2 2.9 74 1.9 NNW 13 17 7 9 1018.2 1018.0 0.0
01/02:00am 7.2 2.8 2.9 74 1.9 NNW 15 26 8 14 1018.1 1017.9 0.0
01/01:30am 7.2 2.0 2.7 73 2.0 NW 19 24 10 13 1018.2 1018.0 0.0
01/01:00am 7.4 1.7 2.7 72 2.0 NW 22 28 12 15 1018.0 1017.8 0.0
01/12:30am 7.5 1.4 2.6 71 2.1 NW 24 32 13 17 1018.2 1018.0 0.0
01/12:00am 7.4 1.6 2.3 70 2.2 NW 22 32 12 17 1018.4 1018.2 0.0
 
Date/Time
EST
Temp
°C
App
Temp
°C
Dew
Point
°C
Rel
Hum
%
Delta-T
°C
Wind Press
QNH
hPa
Press
MSL
hPa
Rain since
9am
mm
Dir  Spd
km/h
Gust
km/h
Spd
kts
Gust
kts
30/11:30pm 7.7 1.2 2.4 69 2.3 WNW 26 35 14 19 1018.6 1018.4 0.0
30/11:00pm 7.7 1.5 2.4 69 2.3 NW 24 32 13 17 1018.7 1018.5 0.0
30/10:30pm 8.0 1.1 2.5 68 2.4 NW 28 39 15 21 1018.8 1018.6 0.0
30/10:00pm 7.8 1.0 2.9 71 2.1 NW 28 43 15 23 1018.7 1018.5 0.0
30/09:30pm 7.6 1.3 3.5 75 1.8 NW 26 32 14 17 1018.4 1018.2 0.0
30/09:00pm 7.2 1.0 4.3 82 1.3 NW 26 32 14 17 1018.5 1018.3 0.0
30/08:30pm 7.3 1.2 4.8 84 1.1 NNW 26 33 14 18 1018.6 1018.4 0.0
30/08:00pm 7.0 2.0 4.8 86 1.0 NNW 20 24 11 13 1018.9 1018.7 0.0
30/07:30pm 7.3 1.2 4.8 84 1.1 NNW 26 33 14 18 1018.3 1018.1 0.0
30/07:00pm 7.4 2.0 4.7 83 1.2 N 22 30 12 16 1018.3 1018.1 0.0
30/06:30pm 7.7 2.7 4.5 80 1.5 N 20 30 11 16 1018.3 1018.1 0.0
30/06:00pm 7.9 2.9 4.5 79 1.5 N 20 28 11 15 1018.2 1018.0 0.0
30/05:30pm 8.5 4.4 4.1 74 2.0 NNW 15 22 8 12 1018.4 1018.2 0.0
30/05:00pm 9.2 5.0 4.0 70 2.4 NNW 15 20 8 11 1018.3 1018.1 0.0
30/04:30pm 9.5 4.9 3.9 68 2.6 NNW 17 24 9 13 1018.3 1018.1 0.0
30/04:00pm 10.0 5.0 3.7 65 2.9 NNW 19 26 10 14 1018.5 1018.3 0.0
30/03:30pm 10.4 4.8 3.2 61 3.3 NNW 22 28 12 15 1018.6 1018.4 0.0
30/03:00pm 10.4 4.3 2.7 59 3.4 NW 24 33 13 18 1018.7 1018.5 0.0
30/02:30pm 11.0 5.1 1.8 53 4.0 NNW 22 30 12 16 1018.9 1018.7 0.0
30/02:00pm 11.4 5.3 2.7 55 3.9 WNW 24 35 13 19 1019.4 1019.2 0.0
30/01:30pm 11.7 4.8 2.5 53 4.1 NW 28 41 15 22 1019.8 1019.6 0.0
30/01:00pm 10.7 4.1 2.3 56 3.7 NW 26 32 14 17 1020.5 1020.4 0.0
30/12:30pm 9.4 3.9 2.0 60 3.2 NNW 20 35 11 19 1020.9 1020.7 0.0
30/12:00pm 9.8 4.2 1.5 56 3.6 NNW 20 32 11 17 1021.6 1021.4 0.0
30/11:30am 9.4 4.1 2.9 64 2.9 NNW 20 28 11 15 1022.3 1022.2 0.0
30/11:00am 9.4 4.1 2.9 64 2.9 NNW 20 30 11 16 1022.9 1022.7 0.0
30/10:30am 9.4 3.4 3.2 65 2.8 NNW 24 32 13 17 1023.1 1023.0 0.0
30/10:00am 8.8 3.6 3.6 70 2.3 NNW 20 32 11 17 1023.1 1023.0 0.0
30/09:30am 7.7 0.9 3.0 72 2.1 NNW 28 37 15 20 1023.0 1022.8 0.0
30/09:00am 7.1 1.2 3.9 80 1.4 NNW 24 33 13 18 1022.7 1022.5 0.2
30/08:30am 5.5 0.4 3.2 85 1.0 NNW 19 24 10 13 1022.6 1022.4 0.2
30/08:00am 4.8 0.0 2.7 86 0.9 N 17 22 9 12 1022.1 1022.0 0.2
30/07:30am 3.3 -1.6 1.8 90 0.6 N 17 20 9 11 1021.9 1021.8 0.2
30/07:00am 2.9 -2.0 1.7 92 0.5 N 17 20 9 11 1021.9 1021.8 0.2
30/06:30am 2.9 -1.3 1.4 90 0.6 N 13 19 7 10 1021.9 1021.8 0.2
30/06:00am 4.0 -0.9 2.0 87 0.8 N 17 22 9 12 1021.6 1021.4 0.2
30/05:30am 3.4 -1.6 1.4 87 0.8 N 17 20 9 11 1021.6 1021.4 0.2
30/05:00am 3.6 -1.0 1.8 88 0.7 N 15 20 8 11 1021.7 1021.5 0.2
30/04:30am 3.4 0.0 1.8 89 0.7 NNW 9 15 5 8 1021.9 1021.8 0.2
30/04:00am 3.3 -0.5 1.7 89 0.6 N 11 15 6 8 1022.1 1022.0 0.2
30/03:30am 3.4 0.0 1.6 88 0.7 N 9 15 5 8 1022.2 1022.1 0.2
30/03:00am 4.1 0.3 2.0 86 0.9 N 11 13 6 7 1022.5 1022.3 0.2
30/02:30am 4.5 1.2 2.5 87 0.8 N 9 13 5 7 1022.9 1022.7 0.2
30/02:00am 4.3 0.2 2.3 87 0.8 N 13 15 7 8 1023.2 1023.1 0.2
30/01:30am 4.8 1.1 2.3 84 1.0 N 11 13 6 7 1023.5 1023.4 0.2
30/01:00am 4.2 0.4 1.6 83 1.1 N 11 15 6 8 1023.6 1023.5 0.2
30/12:30am 5.4 0.9 1.9 78 1.5 N 15 19 8 10 1023.8 1023.7 0.2
30/12:00am 4.8 0.7 2.0 82 1.2 N 13 13 7 7 1024.3 1024.1 0.2
 
Date/Time
EST
Temp
°C
App
Temp
°C
Dew
Point
°C
Rel
Hum
%
Delta-T
°C
Wind Press
QNH
hPa
Press
MSL
hPa
Rain since
9am
mm
Dir  Spd
km/h
Gust
km/h
Spd
kts
Gust
kts
29/11:30pm 5.6 1.5 2.3 79 1.4 N 13 15 7 8 1024.4 1024.2 0.2
29/11:00pm 5.5 1.7 1.6 76 1.6 N 11 15 6 8 1024.7 1024.6 0.2
29/10:30pm 6.4 2.2 1.9 73 1.9 N 13 15 7 8 1024.8 1024.7 0.2
29/10:00pm 6.2 2.6 2.8 79 1.5 N 11 13 6 7 1025.0 1024.9 0.2
29/09:30pm 6.5 2.9 2.9 78 1.6 N 11 13 6 7 1025.2 1025.1 0.2
29/09:00pm 6.4 2.9 3.4 81 1.3 N 11 13 6 7 1025.3 1025.2 0.2
29/08:30pm 7.3 4.2 3.4 76 1.7 N 9 19 5 10 1025.4 1025.3 0.2
29/08:00pm 7.7 4.6 3.4 74 1.9 N 9 17 5 9 1025.5 1025.4 0.2
29/07:30pm 8.5 5.4 3.4 70 2.3 N 9 17 5 9 1025.6 1025.5 0.2
29/07:00pm 8.7 5.5 2.9 67 2.5 N 9 11 5 6 1025.4 1025.3 0.2
29/06:30pm 9.1 5.8 2.7 64 2.8 NNE 9 13 5 7 1025.4 1025.3 0.2
29/06:00pm 9.2 5.9 2.3 62 3.0 NE 9 11 5 6 1025.3 1025.2 0.2
29/05:30pm 10.0 6.5 1.1 54 3.8 ENE 9 13 5 7 1025.2 1025.1 0.2
29/05:00pm 11.3 8.1 0.7 48 4.5 ENE 7 13 4 7 1025.1 1025.0 0.2
29/04:30pm 12.0 9.1 2.7 53 4.2 E 7 13 4 7 1025.2 1025.1 0.2
29/04:00pm 13.4 10.9 3.5 51 4.6 E 6 13 3 7 1025.3 1025.2 0.2
29/03:30pm 13.6 10.9 3.7 51 4.6 SSE 7 15 4 8 1025.2 1025.1 0.2
29/03:00pm 14.3 11.6 2.5 45 5.4 NE 6 13 3 7 1025.2 1025.1 0.2
29/02:30pm 14.1 11.7 2.0 44 5.5 NE 4 13 2 7 1025.1 1025.0 0.2
29/02:00pm 13.9 10.9 2.2 45 5.3 ENE 7 15 4 8 1025.2 1025.1 0.2
29/01:30pm 13.0 9.5 1.4 45 5.2 NNE 9 13 5 7 1025.6 1025.5 0.2
29/01:00pm 12.3 9.0 2.2 50 4.5 N 9 19 5 10 1026.1 1026.0 0.0
29/12:30pm 11.5 8.0 1.2 49 4.5 NNE 9 17 5 9 1026.5 1026.4 0.0
29/12:00pm 10.9 7.1 2.0 54 3.9 NNE 11 15 6 8 1026.8 1026.7 0.0
29/11:30am 9.7 6.3 2.1 59 3.3 NNE 9 13 5 7 1027.2 1027.2 0.0
29/11:00am 9.0 5.6 1.9 61 3.1 ENE 9 17 5 9 1027.6 1027.5 0.0
29/10:30am 7.0 4.3 2.5 73 1.9 S 6 11 3 6 1028.1 1028.0 0.0
29/10:00am 6.0 2.6 2.1 76 1.6 SSW 9 19 5 10 1028.1 1028.0 0.0
29/09:30am 5.4 2.0 2.1 79 1.4 SSE 9 19 5 10 1028.0 1027.9 0.0
29/09:00am 4.5 0.7 2.0 84 1.0 S 11 13 6 7 1027.7 1027.6 0.0
29/08:30am 4.1 -0.1 1.6 84 1.0 S 13 17 7 9 1027.6 1027.5 0.0

Other Formats:

Comma delimited format used in spreadsheet applications
http://www.bom.gov.au/fwo/IDN60801/IDN60801.95728.axf

JavaScript Object Notation format (JSON) in row-major order
http://www.bom.gov.au/fwo/IDN60801/IDN60801.95728.json